createdAt,value
2023-03-11T00:02:27.329Z,2.13
2023-03-11T00:04:54.827Z,2.35
2023-03-11T00:07:22.360Z,2.10
2023-03-11T00:09:50.010Z,2.83
2023-03-11T00:12:17.395Z,3.10
2023-03-11T00:14:44.764Z,2.60
2023-03-11T00:17:12.156Z,3.15
2023-03-11T00:19:39.523Z,2.60
2023-03-11T00:22:06.926Z,3.10
2023-03-11T00:24:35.300Z,2.75
2023-03-11T00:27:02.600Z,2.90
2023-03-11T00:29:30.202Z,2.70
2023-03-11T00:31:57.769Z,2.55
2023-03-11T00:34:25.844Z,2.97
2023-03-11T00:36:54.537Z,2.60
2023-03-11T00:39:23.385Z,2.28
2023-03-11T00:41:52.088Z,2.50
2023-03-11T00:44:19.729Z,3.08
2023-03-11T00:46:47.136Z,2.17
2023-03-11T00:49:14.578Z,2.25
2023-03-11T00:51:42.311Z,2.78
2023-03-11T00:54:10.017Z,2.55
2023-03-11T00:56:38.744Z,2.50
2023-03-11T00:59:06.695Z,2.50
2023-03-11T01:01:34.610Z,2.50
2023-03-11T01:04:02.081Z,2.50
2023-03-11T01:06:39.177Z,2.50
2023-03-11T01:09:12.074Z,2.83
2023-03-11T01:11:39.451Z,3.03
2023-03-11T01:14:08.948Z,3.13
2023-03-11T01:16:36.374Z,3.17
2023-03-11T01:19:04.234Z,2.72
2023-03-11T01:21:31.772Z,3.05
2023-03-11T01:24:00.069Z,2.57
2023-03-11T01:26:27.485Z,3.25
2023-03-11T01:28:56.570Z,3.05
2023-03-11T01:31:24.128Z,2.78
2023-03-11T01:33:51.577Z,2.65
2023-03-11T01:36:18.905Z,3.47
2023-03-11T01:38:46.350Z,3.05
2023-03-11T01:41:14.091Z,2.22
2023-03-11T01:43:41.873Z,2.55
2023-03-11T01:46:37.496Z,2.90
2023-03-11T01:49:05.578Z,2.97
2023-03-11T01:51:38.373Z,2.30
2023-03-11T01:54:12.788Z,3.05
2023-03-11T01:56:42.175Z,2.00
2023-03-11T01:59:11.568Z,2.75
2023-03-11T02:01:42.829Z,2.20
2023-03-11T02:04:10.680Z,2.13
2023-03-11T02:06:38.855Z,2.40
2023-03-11T02:09:06.311Z,2.17
2023-03-11T02:11:33.976Z,2.53
2023-03-11T02:14:04.082Z,2.80
2023-03-11T02:16:31.757Z,2.33
2023-03-11T02:19:01.509Z,2.28
2023-03-11T02:21:32.856Z,3.25
2023-03-11T02:24:11.388Z,3.42
2023-03-11T02:26:45.148Z,2.10
2023-03-11T02:29:13.016Z,2.00
2023-03-11T02:31:43.245Z,2.75
2023-03-11T02:34:15.565Z,2.50
2023-03-11T02:36:43.512Z,2.33
2023-03-11T02:39:14.019Z,2.73
2023-03-11T02:41:44.784Z,3.53
2023-03-11T02:44:14.569Z,3.35
2023-03-11T02:46:43.298Z,2.50
2023-03-11T02:49:12.468Z,2.38
2023-03-11T02:51:39.920Z,2.60
2023-03-11T02:54:07.510Z,2.15
2023-03-11T02:56:36.495Z,2.42
2023-03-11T02:59:03.877Z,2.30
2023-03-11T03:01:31.441Z,2.63
2023-03-11T03:03:59.422Z,3.33
2023-03-11T03:06:28.690Z,2.83
2023-03-11T03:08:56.230Z,2.90
2023-03-11T03:11:23.639Z,3.05
2023-03-11T03:13:51.023Z,2.83
2023-03-11T03:16:18.494Z,2.70
2023-03-11T03:18:45.919Z,2.50
2023-03-11T03:21:13.360Z,3.25
2023-03-11T03:23:40.776Z,2.72
2023-03-11T03:26:08.254Z,2.42
2023-03-11T03:28:38.240Z,2.43
2023-03-11T03:31:08.009Z,2.83
2023-03-11T03:33:37.071Z,2.30
2023-03-11T03:36:07.915Z,3.35
2023-03-11T03:38:40.441Z,2.92
2023-03-11T03:41:08.118Z,3.53
2023-03-11T03:43:38.527Z,2.58
2023-03-11T03:46:06.648Z,2.85
2023-03-11T03:48:41.880Z,3.10
2023-03-11T03:51:12.246Z,3.53
2023-03-11T03:53:46.538Z,2.27
2023-03-11T03:56:16.815Z,3.28
2023-03-11T03:58:45.413Z,3.08
2023-03-11T04:01:13.236Z,2.58
2023-03-11T04:03:41.691Z,2.60
2023-03-11T04:06:20.218Z,2.70
2023-03-11T04:08:52.487Z,3.55
2023-03-11T04:11:21.988Z,3.08
2023-03-11T04:13:49.452Z,3.65
2023-03-11T04:16:21.538Z,3.30
2023-03-11T04:18:49.644Z,3.23
2023-03-11T04:21:18.261Z,3.22
2023-03-11T04:23:47.289Z,3.17
2023-03-11T04:26:17.133Z,2.75
2023-03-11T04:28:44.594Z,2.65
2023-03-11T04:31:12.642Z,3.20
2023-03-11T04:33:40.236Z,2.67
2023-03-11T04:36:10.751Z,3.78
2023-03-11T04:38:39.104Z,2.85
2023-03-11T04:41:09.022Z,2.97
2023-03-11T04:43:39.368Z,2.40
2023-03-11T04:46:06.951Z,3.08
2023-03-11T04:48:34.628Z,2.90
2023-03-11T04:51:02.192Z,2.67
2023-03-11T04:53:29.986Z,2.72
2023-03-11T04:55:57.877Z,2.93
2023-03-11T04:58:25.639Z,2.55
2023-03-11T05:00:53.449Z,3.22
2023-03-11T05:03:22.112Z,2.60
2023-03-11T05:05:49.682Z,3.22
2023-03-11T05:08:19.864Z,2.70
2023-03-11T05:10:47.278Z,3.17
2023-03-11T05:13:14.696Z,2.50
2023-03-11T05:15:42.685Z,3.47
2023-03-11T05:18:10.900Z,2.63
2023-03-11T05:20:39.408Z,2.80
2023-03-11T05:23:08.067Z,2.55
2023-03-11T05:25:37.194Z,2.63
2023-03-11T05:28:05.570Z,2.85
2023-03-11T05:30:36.219Z,2.55
2023-03-11T05:33:04.380Z,3.23
2023-03-11T05:35:32.087Z,2.55
2023-03-11T05:37:59.714Z,3.33
2023-03-11T05:40:29.232Z,2.95
2023-03-11T05:42:56.751Z,2.97
2023-03-11T05:45:24.122Z,3.20
2023-03-11T05:47:53.231Z,3.00
2023-03-11T05:50:20.705Z,3.30
2023-03-11T05:52:49.347Z,3.20
2023-03-11T05:55:17.121Z,2.75
2023-03-11T05:57:46.144Z,2.97
2023-03-11T06:00:13.833Z,3.78
2023-03-11T06:02:42.450Z,7.40
2023-03-11T06:05:14.016Z,4.70
2023-03-11T06:07:43.200Z,3.92
2023-03-11T06:10:11.180Z,3.10
2023-03-11T06:12:39.364Z,3.08
2023-03-11T06:15:15.740Z,3.28
2023-03-11T06:17:43.583Z,3.25
2023-03-11T06:20:11.265Z,6.43
2023-03-11T06:22:40.271Z,7.83
2023-03-11T06:25:08.757Z,6.53
2023-03-11T06:27:37.402Z,6.25
2023-03-11T06:30:05.874Z,5.75
2023-03-11T06:32:38.376Z,3.42
2023-03-11T06:35:05.921Z,2.93
2023-03-11T06:37:36.500Z,3.92
2023-03-11T06:40:05.327Z,3.10
2023-03-11T06:42:32.688Z,3.60
2023-03-11T06:45:00.262Z,3.92
2023-03-11T06:47:27.892Z,3.70
2023-03-11T06:49:55.795Z,3.30
2023-03-11T06:52:23.108Z,3.15
2023-03-11T06:54:50.399Z,3.33
2023-03-11T06:57:18.163Z,3.00
2023-03-11T06:59:47.415Z,2.42
2023-03-11T07:02:17.081Z,3.50
2023-03-11T07:04:44.394Z,3.13
2023-03-11T07:07:12.383Z,3.53
2023-03-11T07:09:39.690Z,2.80
2023-03-11T07:12:09.335Z,3.47
2023-03-11T07:14:37.742Z,3.35
2023-03-11T07:17:04.998Z,3.30
2023-03-11T07:19:52.551Z,3.38
2023-03-11T07:22:20.049Z,2.90
2023-03-11T07:24:47.854Z,3.60
2023-03-11T07:27:15.583Z,3.92
2023-03-11T07:29:42.904Z,3.35
2023-03-11T07:32:10.585Z,3.40
2023-03-11T07:34:37.882Z,2.80
2023-03-11T07:37:05.302Z,4.13
2023-03-11T07:39:32.547Z,2.40
2023-03-11T07:41:59.849Z,4.10
2023-03-11T07:44:34.867Z,3.25
2023-03-11T07:47:05.835Z,3.75
2023-03-11T07:49:34.161Z,3.20
2023-03-11T07:52:01.444Z,2.92
2023-03-11T07:54:28.706Z,2.80
2023-03-11T07:56:55.954Z,2.75
2023-03-11T07:59:23.278Z,2.97
2023-03-11T08:01:50.762Z,3.10
2023-03-11T08:04:26.038Z,9.45
2023-03-11T08:06:53.292Z,5.38
2023-03-11T08:09:20.538Z,3.05
2023-03-11T08:11:49.672Z,2.17
2023-03-11T08:14:17.065Z,2.50
2023-03-11T08:16:44.360Z,2.65
2023-03-11T08:19:14.932Z,3.30
2023-03-11T08:21:42.345Z,2.22
2023-03-11T08:24:11.537Z,2.53
2023-03-11T08:26:39.045Z,2.63
2023-03-11T08:29:06.717Z,2.40
2023-03-11T08:31:35.241Z,2.67
2023-03-11T08:34:07.689Z,2.75
2023-03-11T08:36:35.240Z,23.20
2023-03-11T08:39:03.534Z,36.17
2023-03-11T08:41:30.925Z,23.73
2023-03-11T08:43:58.169Z,11.35
2023-03-11T08:46:27.368Z,5.35
2023-03-11T08:48:55.040Z,3.25
2023-03-11T08:51:22.855Z,2.60
2023-03-11T08:53:50.470Z,4.53
2023-03-11T08:56:17.846Z,3.15
2023-03-11T08:58:45.259Z,2.78
2023-03-11T09:01:13.143Z,2.55
2023-03-11T09:03:40.514Z,4.07
2023-03-11T09:06:09.637Z,3.10
2023-03-11T09:08:36.976Z,2.35
2023-03-11T09:11:05.565Z,3.45
2023-03-11T09:13:33.112Z,3.15
2023-03-11T09:16:00.460Z,3.00
2023-03-11T09:18:29.324Z,2.38
2023-03-11T09:20:58.454Z,3.10
2023-03-11T09:23:26.003Z,2.50
2023-03-11T09:25:53.274Z,3.47
2023-03-11T09:28:20.532Z,2.72
2023-03-11T09:30:47.852Z,4.10
2023-03-11T09:33:15.109Z,6.03
2023-03-11T09:35:42.596Z,2.95
2023-03-11T09:38:09.842Z,2.55
2023-03-11T09:40:47.010Z,1.90
2023-03-11T09:43:31.986Z,2.60
2023-03-11T09:46:06.887Z,1.98
2023-03-11T09:48:54.390Z,1.70
2023-03-11T09:51:26.662Z,2.00
2023-03-11T09:54:00.458Z,2.50
2023-03-11T09:56:28.222Z,1.90
2023-03-11T09:59:07.261Z,2.83
2023-03-11T10:01:35.643Z,2.83
2023-03-11T10:04:09.845Z,2.38
2023-03-11T10:06:37.511Z,1.92
2023-03-11T10:09:20.022Z,2.40
2023-03-11T10:11:50.376Z,2.60
2023-03-11T10:14:17.615Z,2.15
2023-03-11T10:16:56.303Z,1.83
2023-03-11T10:19:26.629Z,1.50
2023-03-11T10:22:01.770Z,3.53
2023-03-11T10:24:45.757Z,5.68
2023-03-11T10:27:34.125Z,2.28
2023-03-11T10:30:06.104Z,1.40
2023-03-11T10:32:39.688Z,1.30
2023-03-11T10:35:15.383Z,1.17
2023-03-11T10:37:50.170Z,1.50
2023-03-11T10:40:24.080Z,1.52
2023-03-11T10:42:52.622Z,1.83
2023-03-11T10:45:20.979Z,2.17
2023-03-11T10:47:48.307Z,1.90
2023-03-11T10:50:19.747Z,2.10
2023-03-11T10:53:13.637Z,2.20
2023-03-11T10:56:01.393Z,1.60
2023-03-11T10:58:30.114Z,1.65
2023-03-11T11:01:05.497Z,1.80
2023-03-11T11:03:33.617Z,1.60
2023-03-11T11:06:05.821Z,1.63
2023-03-11T11:08:33.432Z,1.55
2023-03-11T11:11:01.896Z,1.30
2023-03-11T11:13:31.203Z,1.43
2023-03-11T11:16:00.868Z,1.48
2023-03-11T11:18:33.044Z,0.93
2023-03-11T11:21:05.200Z,0.90
2023-03-11T11:23:38.162Z,0.95
2023-03-11T11:26:07.364Z,1.17
2023-03-11T11:28:35.224Z,1.20
2023-03-11T11:31:07.439Z,0.90
2023-03-11T11:33:39.659Z,0.90
2023-03-11T11:36:12.032Z,1.10
2023-03-11T11:38:39.412Z,1.00
2023-03-11T11:41:07.457Z,1.02
2023-03-11T11:43:43.982Z,0.88
2023-03-11T11:46:22.460Z,0.88
2023-03-11T11:48:57.495Z,1.33
2023-03-11T11:51:29.317Z,1.37
2023-03-11T11:53:57.652Z,1.13
2023-03-11T11:56:26.371Z,0.95
2023-03-11T11:58:59.523Z,1.38
2023-03-11T12:01:36.016Z,2.25
2023-03-11T12:04:18.666Z,1.90
2023-03-11T12:06:49.033Z,2.58
2023-03-11T12:09:28.738Z,1.33
2023-03-11T12:12:05.246Z,1.00
2023-03-11T12:14:52.829Z,0.95
2023-03-11T12:17:23.730Z,1.37
2023-03-11T12:19:56.860Z,1.08
2023-03-11T12:22:42.044Z,1.08
2023-03-11T12:25:09.858Z,1.00
2023-03-11T12:27:43.048Z,0.88
2023-03-11T12:30:16.784Z,1.03
2023-03-11T12:32:48.341Z,1.75
2023-03-11T12:35:24.861Z,1.00
2023-03-11T12:38:11.012Z,0.93
2023-03-11T12:40:44.260Z,1.05
2023-03-11T12:43:37.921Z,1.07
2023-03-11T12:46:09.216Z,0.93
2023-03-11T12:48:46.793Z,0.90
2023-03-11T12:51:34.299Z,1.10
2023-03-11T12:54:27.935Z,1.05
2023-03-11T12:56:58.211Z,1.10
2023-03-11T12:59:25.551Z,1.38
2023-03-11T13:02:05.633Z,1.13
2023-03-11T13:04:45.578Z,0.85
2023-03-11T13:07:13.230Z,1.50
2023-03-11T13:09:41.038Z,1.40
2023-03-11T13:12:27.514Z,1.08
2023-03-11T13:15:13.418Z,0.90
2023-03-11T13:17:41.829Z,1.10
2023-03-11T13:20:29.043Z,1.25
2023-03-11T13:22:56.283Z,1.10
2023-03-11T13:25:31.830Z,0.77
2023-03-11T13:28:08.068Z,1.13
2023-03-11T13:30:39.328Z,1.60
2023-03-11T13:33:21.438Z,1.52
2023-03-11T13:35:48.755Z,1.50
2023-03-11T13:38:25.161Z,1.73
2023-03-11T13:40:53.201Z,1.10
2023-03-11T13:43:20.586Z,1.00
2023-03-11T13:46:06.451Z,1.10
2023-03-11T13:48:37.629Z,1.17
2023-03-11T13:51:05.330Z,1.30
2023-03-11T13:53:38.493Z,1.08
2023-03-11T13:56:05.948Z,0.90
2023-03-11T13:58:33.164Z,1.55
2023-03-11T14:01:01.780Z,1.60
2023-03-11T14:03:33.712Z,1.15
2023-03-11T14:06:08.616Z,1.30
2023-03-11T14:08:37.169Z,1.60
2023-03-11T14:11:04.401Z,2.15
2023-03-11T14:13:32.802Z,1.17
2023-03-11T14:16:02.713Z,1.88
2023-03-11T14:18:33.085Z,1.45
2023-03-11T14:21:01.086Z,1.83
2023-03-11T14:23:34.491Z,1.42
2023-03-11T14:26:06.957Z,2.17
2023-03-11T14:28:36.595Z,1.95
2023-03-11T14:31:04.629Z,1.90
2023-03-11T14:33:31.973Z,1.67
2023-03-11T14:36:00.767Z,1.60
2023-03-11T14:38:29.631Z,1.47
2023-03-11T14:40:58.156Z,1.10
2023-03-11T14:43:26.251Z,1.45
2023-03-11T14:45:54.220Z,1.70
2023-03-11T14:48:24.915Z,1.67
2023-03-11T14:50:52.893Z,1.80
2023-03-11T14:53:31.586Z,1.67
2023-03-11T14:56:00.054Z,1.77
2023-03-11T14:58:30.539Z,1.70
2023-03-11T15:01:12.604Z,2.05
2023-03-11T15:03:42.466Z,2.23
2023-03-11T15:06:13.175Z,1.30
2023-03-11T15:08:45.892Z,1.63
2023-03-11T15:11:13.270Z,2.38
2023-03-11T15:13:42.043Z,2.08
2023-03-11T15:16:22.804Z,1.50
2023-03-11T15:18:50.160Z,1.70
2023-03-11T15:21:18.979Z,1.80
2023-03-11T15:23:51.257Z,1.73
2023-03-11T15:26:23.646Z,1.65
2023-03-11T15:29:14.218Z,1.70
2023-03-11T15:31:42.588Z,1.88
2023-03-11T15:34:12.452Z,1.60
2023-03-11T15:36:42.354Z,1.85
2023-03-11T15:39:09.638Z,1.42
2023-03-11T15:41:36.882Z,1.30
2023-03-11T15:44:07.490Z,1.33
2023-03-11T15:46:35.301Z,1.50
2023-03-11T15:49:02.606Z,1.20
2023-03-11T15:51:29.886Z,1.05
2023-03-11T15:53:57.124Z,1.40
2023-03-11T15:56:25.209Z,1.42
2023-03-11T15:58:52.544Z,1.55
2023-03-11T16:01:23.777Z,2.45
2023-03-11T16:03:51.339Z,1.73
2023-03-11T16:06:18.601Z,1.97
2023-03-11T16:08:45.915Z,1.60
2023-03-11T16:11:13.612Z,1.70
2023-03-11T16:13:41.458Z,1.40
2023-03-11T16:16:18.059Z,1.75
2023-03-11T16:18:45.467Z,1.30
2023-03-11T16:21:16.529Z,1.30
2023-03-11T16:23:51.607Z,1.73
2023-03-11T16:26:22.092Z,2.25
2023-03-11T16:28:49.510Z,2.05
2023-03-11T16:31:16.839Z,1.67
2023-03-11T16:33:44.215Z,1.42
2023-03-11T16:36:11.723Z,1.77
2023-03-11T16:38:44.333Z,2.30
2023-03-11T16:41:11.913Z,1.77
2023-03-11T16:43:39.170Z,1.60
2023-03-11T16:46:06.511Z,1.55
2023-03-11T16:48:34.094Z,1.48
2023-03-11T16:51:02.036Z,1.77
2023-03-11T16:53:29.424Z,1.80
2023-03-11T16:55:57.007Z,2.60
2023-03-11T16:58:24.542Z,2.15
2023-03-11T17:00:51.801Z,2.50
2023-03-11T17:03:21.853Z,2.22
2023-03-11T17:05:49.548Z,2.17
2023-03-11T17:08:18.454Z,2.13
2023-03-11T17:10:46.753Z,2.50
2023-03-11T17:13:17.012Z,2.33
2023-03-11T17:15:46.715Z,2.20
2023-03-11T17:18:14.006Z,1.67
2023-03-11T17:20:43.613Z,1.83
2023-03-11T17:23:10.894Z,1.20
2023-03-11T17:25:41.195Z,2.38
2023-03-11T17:28:08.949Z,2.40
2023-03-11T17:30:37.473Z,2.00
2023-03-11T17:33:05.161Z,1.80
2023-03-11T17:35:32.669Z,2.10
2023-03-11T17:38:00.130Z,1.70
2023-03-11T17:40:29.345Z,2.10
2023-03-11T17:42:56.937Z,2.20
2023-03-11T17:45:24.218Z,1.57
2023-03-11T17:47:51.505Z,2.25
2023-03-11T17:50:19.048Z,3.28
2023-03-11T17:52:54.648Z,3.28
2023-03-11T17:55:21.876Z,4.55
2023-03-11T17:57:49.166Z,3.30
2023-03-11T18:00:16.701Z,3.13
2023-03-11T18:02:43.937Z,2.80
2023-03-11T18:05:11.446Z,2.40
2023-03-11T18:07:39.246Z,2.15
2023-03-11T18:10:07.410Z,3.37
2023-03-11T18:12:34.765Z,3.10
2023-03-11T18:15:04.194Z,2.05
2023-03-11T18:17:31.483Z,2.15
2023-03-11T18:20:02.377Z,3.10
2023-03-11T18:22:29.659Z,7.47
2023-03-11T18:24:57.821Z,5.63
2023-03-11T18:27:25.586Z,3.75
2023-03-11T18:29:52.780Z,4.15
2023-03-11T18:32:20.911Z,2.95
2023-03-11T18:34:51.439Z,4.27
2023-03-11T18:37:18.817Z,4.18
2023-03-11T18:39:46.154Z,4.70
2023-03-11T18:42:14.160Z,5.20
2023-03-11T18:44:42.044Z,5.35
2023-03-11T18:47:09.394Z,7.23
2023-03-11T18:49:36.751Z,3.65
2023-03-11T18:52:04.072Z,5.55
2023-03-11T18:54:31.311Z,6.60
2023-03-11T18:56:58.648Z,6.82
2023-03-11T18:59:27.852Z,7.10
2023-03-11T19:01:55.377Z,5.97
2023-03-11T19:04:22.757Z,4.40
2023-03-11T19:06:50.263Z,4.13
2023-03-11T19:09:18.496Z,3.70
2023-03-11T19:11:46.348Z,3.87
2023-03-11T19:14:13.657Z,5.35
2023-03-11T19:16:40.937Z,7.05
2023-03-11T19:19:10.744Z,7.53
2023-03-11T19:21:38.916Z,8.73
2023-03-11T19:24:06.329Z,6.37
2023-03-11T19:26:45.775Z,5.70
2023-03-11T19:29:14.086Z,4.80
2023-03-11T19:31:43.370Z,5.90
2023-03-11T19:34:10.735Z,10.60
2023-03-11T19:36:39.195Z,11.50
2023-03-11T19:39:06.555Z,9.90
2023-03-11T19:41:33.827Z,6.88
2023-03-11T19:44:01.430Z,6.55
2023-03-11T19:46:29.732Z,7.47
2023-03-11T19:48:57.113Z,6.07
2023-03-11T19:51:26.594Z,7.18
2023-03-11T19:53:55.699Z,7.20
2023-03-11T19:56:23.433Z,7.38
2023-03-11T19:58:50.641Z,8.55
2023-03-11T20:01:18.718Z,6.17
2023-03-11T20:03:46.053Z,7.30
2023-03-11T20:06:16.390Z,6.68
2023-03-11T20:08:43.920Z,7.15
2023-03-11T20:11:11.258Z,7.72
2023-03-11T20:13:41.243Z,8.02
2023-03-11T20:16:10.234Z,9.55
2023-03-11T20:18:37.692Z,9.75
2023-03-11T20:21:06.183Z,8.73
2023-03-11T20:23:33.945Z,7.82
2023-03-11T20:26:01.275Z,8.95
2023-03-11T20:28:28.638Z,9.98
2023-03-11T20:30:56.029Z,11.80
2023-03-11T20:33:23.388Z,11.20
2023-03-11T20:35:50.734Z,9.43
2023-03-11T20:38:18.061Z,7.95
2023-03-11T20:40:45.440Z,6.78
2023-03-11T20:43:12.898Z,8.15
2023-03-11T20:45:40.314Z,8.38
2023-03-11T20:48:07.611Z,7.97
2023-03-11T20:50:35.038Z,8.05
2023-03-11T20:53:02.407Z,9.02
2023-03-11T20:55:29.759Z,9.32
2023-03-11T20:57:57.241Z,8.70
2023-03-11T21:00:24.565Z,8.27
2023-03-11T21:02:51.960Z,9.27
2023-03-11T21:05:19.470Z,8.55
2023-03-11T21:07:48.490Z,8.20
2023-03-11T21:10:16.080Z,8.70
2023-03-11T21:12:43.465Z,8.98
2023-03-11T21:15:11.240Z,8.43
2023-03-11T21:17:38.637Z,8.35
2023-03-11T21:20:06.380Z,9.10
2023-03-11T21:22:34.007Z,8.05
2023-03-11T21:25:01.426Z,9.25
2023-03-11T21:27:28.839Z,8.68
2023-03-11T21:29:56.361Z,8.68
2023-03-11T21:32:24.203Z,9.93
2023-03-11T21:34:51.602Z,8.43
2023-03-11T21:37:19.044Z,8.57
2023-03-11T21:39:46.380Z,7.55
2023-03-11T21:42:14.284Z,7.22
2023-03-11T21:44:42.003Z,8.57
2023-03-11T21:47:09.514Z,9.40
2023-03-11T21:49:38.913Z,8.20
2023-03-11T21:52:06.711Z,7.15
2023-03-11T21:54:34.041Z,6.88
2023-03-11T21:57:01.544Z,6.88
2023-03-11T21:59:30.053Z,6.55
2023-03-11T22:02:01.440Z,6.18
2023-03-11T22:04:29.058Z,6.00
2023-03-11T22:06:57.409Z,6.15
2023-03-11T22:09:25.856Z,5.53
2023-03-11T22:11:53.569Z,5.75
2023-03-11T22:14:21.102Z,5.45
2023-03-11T22:16:48.597Z,5.47
2023-03-11T22:19:16.007Z,6.32
2023-03-11T22:21:43.858Z,4.70
2023-03-11T22:24:11.408Z,6.18
2023-03-11T22:26:38.689Z,6.43
2023-03-11T22:29:08.558Z,5.97
2023-03-11T22:31:36.167Z,5.70
2023-03-11T22:34:03.484Z,6.65
2023-03-11T22:36:30.805Z,6.97
2023-03-11T22:38:58.022Z,5.43
2023-03-11T22:41:25.399Z,6.18
2023-03-11T22:43:52.629Z,6.80
2023-03-11T22:46:19.933Z,6.95
2023-03-11T22:48:47.347Z,6.13
2023-03-11T22:51:14.862Z,7.00
2023-03-11T22:53:42.182Z,7.00
2023-03-11T22:56:13.868Z,7.38
2023-03-11T22:58:41.592Z,7.45
2023-03-11T23:01:09.319Z,8.25
2023-03-11T23:03:37.304Z,7.65
2023-03-11T23:06:06.413Z,7.38
2023-03-11T23:08:33.748Z,8.07
2023-03-11T23:11:05.370Z,7.70
2023-03-11T23:13:33.948Z,6.88
2023-03-11T23:16:04.580Z,7.72
2023-03-11T23:18:31.915Z,8.23
2023-03-11T23:20:59.206Z,7.13
2023-03-11T23:23:26.622Z,7.82
2023-03-11T23:25:54.832Z,8.10
2023-03-11T23:28:22.489Z,8.40
2023-03-11T23:30:52.865Z,7.82
2023-03-11T23:33:21.776Z,7.60
2023-03-11T23:35:49.500Z,8.43
2023-03-11T23:38:17.386Z,7.78
2023-03-11T23:40:45.936Z,8.65
2023-03-11T23:43:14.774Z,9.10
2023-03-11T23:45:43.320Z,8.43
2023-03-11T23:48:11.268Z,8.32
2023-03-11T23:50:39.295Z,7.65
2023-03-11T23:53:07.781Z,8.07
2023-03-11T23:55:38.088Z,8.07
2023-03-11T23:58:07.393Z,7.90
